sensor_id;sensor_type;location;lat;lon;timestamp;P1;durP1;ratioP1;P2;durP2;ratioP2
12474;SDS011;6302;42.624;23.334;2023-07-30T00:00:49;2.47;;;2.27;;
12474;SDS011;6302;42.624;23.334;2023-07-30T00:03:16;3.23;;;2.30;;
12474;SDS011;6302;42.624;23.334;2023-07-30T00:05:52;2.33;;;2.13;;
12474;SDS011;6302;42.624;23.334;2023-07-30T00:08:19;2.33;;;2.00;;
12474;SDS011;6302;42.624;23.334;2023-07-30T00:10:46;2.57;;;2.37;;
12474;SDS011;6302;42.624;23.334;2023-07-30T00:13:13;3.73;;;2.50;;
12474;SDS011;6302;42.624;23.334;2023-07-30T00:15:40;2.40;;;2.20;;
12474;SDS011;6302;42.624;23.334;2023-07-30T00:18:07;3.17;;;2.40;;
12474;SDS011;6302;42.624;23.334;2023-07-30T00:20:34;2.60;;;2.40;;
12474;SDS011;6302;42.624;23.334;2023-07-30T00:23:02;2.60;;;2.40;;
12474;SDS011;6302;42.624;23.334;2023-07-30T00:25:29;2.40;;;2.20;;
12474;SDS011;6302;42.624;23.334;2023-07-30T00:27:56;2.60;;;2.37;;
12474;SDS011;6302;42.624;23.334;2023-07-30T00:30:23;2.60;;;2.40;;
12474;SDS011;6302;42.624;23.334;2023-07-30T00:32:50;2.40;;;2.20;;
12474;SDS011;6302;42.624;23.334;2023-07-30T00:35:17;2.37;;;2.17;;
12474;SDS011;6302;42.624;23.334;2023-07-30T00:37:44;2.63;;;2.40;;
12474;SDS011;6302;42.624;23.334;2023-07-30T00:40:12;2.77;;;2.57;;
12474;SDS011;6302;42.624;23.334;2023-07-30T00:42:39;2.50;;;2.30;;
12474;SDS011;6302;42.624;23.334;2023-07-30T00:45:06;2.40;;;2.20;;
12474;SDS011;6302;42.624;23.334;2023-07-30T00:47:34;2.50;;;2.30;;
12474;SDS011;6302;42.624;23.334;2023-07-30T00:50:02;2.77;;;2.57;;
12474;SDS011;6302;42.624;23.334;2023-07-30T00:52:29;2.93;;;2.10;;
12474;SDS011;6302;42.624;23.334;2023-07-30T00:54:57;2.77;;;2.57;;
12474;SDS011;6302;42.624;23.334;2023-07-30T00:57:26;4.07;;;2.80;;
12474;SDS011;6302;42.624;23.334;2023-07-30T00:59:53;2.30;;;2.10;;
12474;SDS011;6302;42.624;23.334;2023-07-30T01:02:22;2.90;;;2.70;;
12474;SDS011;6302;42.624;23.334;2023-07-30T01:04:49;2.60;;;2.40;;
12474;SDS011;6302;42.624;23.334;2023-07-30T01:07:17;2.50;;;2.30;;
12474;SDS011;6302;42.624;23.334;2023-07-30T01:09:44;2.57;;;2.37;;
12474;SDS011;6302;42.624;23.334;2023-07-30T01:12:10;2.53;;;2.33;;
12474;SDS011;6302;42.624;23.334;2023-07-30T01:14:39;2.40;;;2.20;;
12474;SDS011;6302;42.624;23.334;2023-07-30T01:17:06;2.73;;;2.40;;
12474;SDS011;6302;42.624;23.334;2023-07-30T01:19:33;2.87;;;2.67;;
12474;SDS011;6302;42.624;23.334;2023-07-30T01:22:01;3.40;;;2.70;;
12474;SDS011;6302;42.624;23.334;2023-07-30T01:24:28;3.93;;;2.70;;
12474;SDS011;6302;42.624;23.334;2023-07-30T01:26:55;2.37;;;2.17;;
12474;SDS011;6302;42.624;23.334;2023-07-30T01:29:37;2.83;;;2.37;;
12474;SDS011;6302;42.624;23.334;2023-07-30T01:32:08;3.10;;;2.80;;
12474;SDS011;6302;42.624;23.334;2023-07-30T01:34:37;4.57;;;2.90;;
12474;SDS011;6302;42.624;23.334;2023-07-30T01:37:11;2.93;;;2.63;;
12474;SDS011;6302;42.624;23.334;2023-07-30T01:39:39;2.90;;;2.70;;
12474;SDS011;6302;42.624;23.334;2023-07-30T01:42:07;2.90;;;2.30;;
12474;SDS011;6302;42.624;23.334;2023-07-30T01:44:34;2.53;;;2.33;;
12474;SDS011;6302;42.624;23.334;2023-07-30T01:47:01;3.10;;;2.50;;
12474;SDS011;6302;42.624;23.334;2023-07-30T01:49:28;2.43;;;2.23;;
12474;SDS011;6302;42.624;23.334;2023-07-30T01:51:54;3.00;;;2.80;;
12474;SDS011;6302;42.624;23.334;2023-07-30T01:54:23;3.00;;;2.67;;
12474;SDS011;6302;42.624;23.334;2023-07-30T01:56:50;3.33;;;2.50;;
12474;SDS011;6302;42.624;23.334;2023-07-30T01:59:16;3.13;;;2.83;;
12474;SDS011;6302;42.624;23.334;2023-07-30T02:01:43;2.40;;;2.20;;
12474;SDS011;6302;42.624;23.334;2023-07-30T02:04:11;2.97;;;2.27;;
12474;SDS011;6302;42.624;23.334;2023-07-30T02:06:37;2.60;;;2.40;;
12474;SDS011;6302;42.624;23.334;2023-07-30T02:09:04;5.00;;;2.50;;
12474;SDS011;6302;42.624;23.334;2023-07-30T02:11:32;3.00;;;2.73;;
12474;SDS011;6302;42.624;23.334;2023-07-30T02:14:01;2.23;;;2.03;;
12474;SDS011;6302;42.624;23.334;2023-07-30T02:16:29;3.87;;;2.73;;
12474;SDS011;6302;42.624;23.334;2023-07-30T02:18:56;2.50;;;2.30;;
12474;SDS011;6302;42.624;23.334;2023-07-30T02:21:27;2.50;;;2.30;;
12474;SDS011;6302;42.624;23.334;2023-07-30T02:23:57;2.90;;;2.70;;
12474;SDS011;6302;42.624;23.334;2023-07-30T02:26:25;2.57;;;2.37;;
12474;SDS011;6302;42.624;23.334;2023-07-30T02:28:53;3.40;;;3.10;;
12474;SDS011;6302;42.624;23.334;2023-07-30T02:31:20;3.37;;;2.50;;
12474;SDS011;6302;42.624;23.334;2023-07-30T02:33:46;3.43;;;3.13;;
12474;SDS011;6302;42.624;23.334;2023-07-30T02:36:13;2.37;;;2.20;;
12474;SDS011;6302;42.624;23.334;2023-07-30T02:38:40;3.80;;;2.83;;
12474;SDS011;6302;42.624;23.334;2023-07-30T02:41:07;5.20;;;2.80;;
12474;SDS011;6302;42.624;23.334;2023-07-30T02:43:34;3.40;;;3.10;;
12474;SDS011;6302;42.624;23.334;2023-07-30T02:46:04;2.97;;;2.77;;
12474;SDS011;6302;42.624;23.334;2023-07-30T02:48:32;2.80;;;2.60;;
12474;SDS011;6302;42.624;23.334;2023-07-30T02:50:58;2.80;;;2.60;;
12474;SDS011;6302;42.624;23.334;2023-07-30T02:53:25;2.70;;;2.50;;
12474;SDS011;6302;42.624;23.334;2023-07-30T02:55:52;2.97;;;2.77;;
12474;SDS011;6302;42.624;23.334;2023-07-30T02:58:20;3.77;;;2.70;;
12474;SDS011;6302;42.624;23.334;2023-07-30T03:00:47;2.70;;;2.50;;
12474;SDS011;6302;42.624;23.334;2023-07-30T03:03:15;2.87;;;2.67;;
12474;SDS011;6302;42.624;23.334;2023-07-30T03:05:42;3.20;;;2.73;;
12474;SDS011;6302;42.624;23.334;2023-07-30T03:08:10;3.07;;;2.87;;
12474;SDS011;6302;42.624;23.334;2023-07-30T03:10:39;2.93;;;2.73;;
12474;SDS011;6302;42.624;23.334;2023-07-30T03:13:06;3.30;;;3.10;;
12474;SDS011;6302;42.624;23.334;2023-07-30T03:15:33;3.37;;;2.70;;
12474;SDS011;6302;42.624;23.334;2023-07-30T03:17:59;2.90;;;2.60;;
12474;SDS011;6302;42.624;23.334;2023-07-30T03:20:28;3.67;;;3.17;;
12474;SDS011;6302;42.624;23.334;2023-07-30T03:22:54;3.23;;;2.70;;
12474;SDS011;6302;42.624;23.334;2023-07-30T03:25:21;3.03;;;2.77;;
12474;SDS011;6302;42.624;23.334;2023-07-30T03:27:48;3.50;;;3.10;;
12474;SDS011;6302;42.624;23.334;2023-07-30T03:30:15;3.40;;;3.10;;
12474;SDS011;6302;42.624;23.334;2023-07-30T03:32:43;4.00;;;3.10;;
12474;SDS011;6302;42.624;23.334;2023-07-30T03:35:10;3.00;;;2.70;;
12474;SDS011;6302;42.624;23.334;2023-07-30T03:37:38;5.60;;;2.87;;
12474;SDS011;6302;42.624;23.334;2023-07-30T03:40:05;3.23;;;3.00;;
12474;SDS011;6302;42.624;23.334;2023-07-30T03:42:33;2.97;;;2.77;;
12474;SDS011;6302;42.624;23.334;2023-07-30T03:45:00;3.00;;;2.73;;
12474;SDS011;6302;42.624;23.334;2023-07-30T03:47:26;3.33;;;3.03;;
12474;SDS011;6302;42.624;23.334;2023-07-30T03:49:53;3.07;;;2.80;;
12474;SDS011;6302;42.624;23.334;2023-07-30T03:52:20;3.60;;;2.90;;
12474;SDS011;6302;42.624;23.334;2023-07-30T03:54:48;3.27;;;2.70;;
12474;SDS011;6302;42.624;23.334;2023-07-30T03:57:15;3.03;;;2.77;;
12474;SDS011;6302;42.624;23.334;2023-07-30T03:59:42;4.77;;;2.90;;
12474;SDS011;6302;42.624;23.334;2023-07-30T04:02:08;2.80;;;2.60;;
12474;SDS011;6302;42.624;23.334;2023-07-30T04:04:40;2.70;;;2.50;;
12474;SDS011;6302;42.624;23.334;2023-07-30T04:07:08;2.77;;;2.57;;
12474;SDS011;6302;42.624;23.334;2023-07-30T04:09:35;3.87;;;2.93;;
12474;SDS011;6302;42.624;23.334;2023-07-30T04:12:04;3.40;;;3.10;;
12474;SDS011;6302;42.624;23.334;2023-07-30T04:14:31;4.27;;;3.40;;
12474;SDS011;6302;42.624;23.334;2023-07-30T04:16:58;3.10;;;2.67;;
12474;SDS011;6302;42.624;23.334;2023-07-30T04:19:24;3.33;;;2.93;;
12474;SDS011;6302;42.624;23.334;2023-07-30T04:21:51;3.13;;;2.80;;
12474;SDS011;6302;42.624;23.334;2023-07-30T04:24:18;3.60;;;3.30;;
12474;SDS011;6302;42.624;23.334;2023-07-30T04:26:45;2.90;;;2.60;;
12474;SDS011;6302;42.624;23.334;2023-07-30T04:29:13;3.20;;;2.90;;
12474;SDS011;6302;42.624;23.334;2023-07-30T04:31:41;3.60;;;3.30;;
12474;SDS011;6302;42.624;23.334;2023-07-30T04:34:08;3.03;;;2.73;;
12474;SDS011;6302;42.624;23.334;2023-07-30T04:36:36;2.80;;;2.60;;
12474;SDS011;6302;42.624;23.334;2023-07-30T04:39:03;3.63;;;3.23;;
12474;SDS011;6302;42.624;23.334;2023-07-30T04:41:30;3.00;;;2.67;;
12474;SDS011;6302;42.624;23.334;2023-07-30T04:43:57;3.07;;;2.87;;
12474;SDS011;6302;42.624;23.334;2023-07-30T04:46:25;3.53;;;3.20;;
12474;SDS011;6302;42.624;23.334;2023-07-30T04:48:52;5.40;;;3.27;;
12474;SDS011;6302;42.624;23.334;2023-07-30T04:51:18;3.27;;;2.97;;
12474;SDS011;6302;42.624;23.334;2023-07-30T04:53:45;3.83;;;3.40;;
12474;SDS011;6302;42.624;23.334;2023-07-30T04:56:13;3.77;;;3.47;;
12474;SDS011;6302;42.624;23.334;2023-07-30T04:58:41;4.67;;;3.63;;
12474;SDS011;6302;42.624;23.334;2023-07-30T05:01:08;4.10;;;3.70;;
12474;SDS011;6302;42.624;23.334;2023-07-30T05:03:36;5.00;;;4.10;;
12474;SDS011;6302;42.624;23.334;2023-07-30T05:06:03;4.83;;;3.67;;
12474;SDS011;6302;42.624;23.334;2023-07-30T05:08:31;7.77;;;4.37;;
12474;SDS011;6302;42.624;23.334;2023-07-30T05:10:58;5.37;;;4.13;;
12474;SDS011;6302;42.624;23.334;2023-07-30T05:13:24;4.60;;;4.20;;
12474;SDS011;6302;42.624;23.334;2023-07-30T05:15:51;4.20;;;3.57;;
12474;SDS011;6302;42.624;23.334;2023-07-30T05:18:18;6.70;;;3.90;;
12474;SDS011;6302;42.624;23.334;2023-07-30T05:20:47;4.77;;;3.70;;
12474;SDS011;6302;42.624;23.334;2023-07-30T05:23:16;4.20;;;3.67;;
12474;SDS011;6302;42.624;23.334;2023-07-30T05:25:46;5.90;;;3.53;;
12474;SDS011;6302;42.624;23.334;2023-07-30T05:28:13;4.20;;;3.80;;
12474;SDS011;6302;42.624;23.334;2023-07-30T05:30:40;5.43;;;3.80;;
12474;SDS011;6302;42.624;23.334;2023-07-30T05:33:06;5.43;;;3.30;;
12474;SDS011;6302;42.624;23.334;2023-07-30T05:35:33;6.90;;;3.90;;
12474;SDS011;6302;42.624;23.334;2023-07-30T05:38:01;4.13;;;3.70;;
12474;SDS011;6302;42.624;23.334;2023-07-30T05:40:28;4.00;;;3.60;;
12474;SDS011;6302;42.624;23.334;2023-07-30T05:42:55;4.63;;;3.90;;
12474;SDS011;6302;42.624;23.334;2023-07-30T05:45:22;7.10;;;3.80;;
12474;SDS011;6302;42.624;23.334;2023-07-30T05:47:50;5.17;;;3.43;;
12474;SDS011;6302;42.624;23.334;2023-07-30T05:50:17;5.43;;;3.40;;
12474;SDS011;6302;42.624;23.334;2023-07-30T05:52:44;6.27;;;3.20;;
12474;SDS011;6302;42.624;23.334;2023-07-30T05:55:12;4.30;;;2.97;;
12474;SDS011;6302;42.624;23.334;2023-07-30T05:57:39;13.88;;;4.70;;
12474;SDS011;6302;42.624;23.334;2023-07-30T06:00:06;9.13;;;4.10;;
12474;SDS011;6302;42.624;23.334;2023-07-30T06:02:34;12.97;;;4.20;;
12474;SDS011;6302;42.624;23.334;2023-07-30T06:05:00;7.60;;;3.10;;
12474;SDS011;6302;42.624;23.334;2023-07-30T06:07:29;9.07;;;3.30;;
12474;SDS011;6302;42.624;23.334;2023-07-30T06:09:56;5.53;;;3.22;;
12474;SDS011;6302;42.624;23.334;2023-07-30T06:12:25;4.35;;;3.15;;
12474;SDS011;6302;42.624;23.334;2023-07-30T06:14:52;7.97;;;3.42;;
12474;SDS011;6302;42.624;23.334;2023-07-30T06:17:19;3.43;;;3.13;;
12474;SDS011;6302;42.624;23.334;2023-07-30T06:19:46;8.03;;;3.77;;
12474;SDS011;6302;42.624;23.334;2023-07-30T06:22:12;4.97;;;3.25;;
12474;SDS011;6302;42.624;23.334;2023-07-30T06:24:41;8.23;;;3.30;;
12474;SDS011;6302;42.624;23.334;2023-07-30T06:27:07;6.73;;;3.73;;
12474;SDS011;6302;42.624;23.334;2023-07-30T06:29:36;7.53;;;3.90;;
12474;SDS011;6302;42.624;23.334;2023-07-30T06:32:03;4.18;;;3.53;;
12474;SDS011;6302;42.624;23.334;2023-07-30T06:34:31;12.53;;;3.73;;
12474;SDS011;6302;42.624;23.334;2023-07-30T06:36:58;4.77;;;3.70;;
12474;SDS011;6302;42.624;23.334;2023-07-30T06:39:25;3.83;;;3.53;;
12474;SDS011;6302;42.624;23.334;2023-07-30T06:41:51;4.73;;;3.23;;
12474;SDS011;6302;42.624;23.334;2023-07-30T06:44:18;4.07;;;3.47;;
12474;SDS011;6302;42.624;23.334;2023-07-30T06:46:49;4.93;;;3.22;;
12474;SDS011;6302;42.624;23.334;2023-07-30T06:49:16;4.53;;;3.42;;
12474;SDS011;6302;42.624;23.334;2023-07-30T06:51:43;4.63;;;3.28;;
12474;SDS011;6302;42.624;23.334;2023-07-30T06:54:10;3.70;;;3.33;;
12474;SDS011;6302;42.624;23.334;2023-07-30T06:56:36;5.53;;;3.38;;
12474;SDS011;6302;42.624;23.334;2023-07-30T06:59:04;6.03;;;3.67;;
12474;SDS011;6302;42.624;23.334;2023-07-30T07:01:30;4.47;;;3.53;;
12474;SDS011;6302;42.624;23.334;2023-07-30T07:03:59;5.22;;;2.97;;
12474;SDS011;6302;42.624;23.334;2023-07-30T07:06:25;3.38;;;3.08;;
12474;SDS011;6302;42.624;23.334;2023-07-30T07:08:54;10.65;;;3.85;;
12474;SDS011;6302;42.624;23.334;2023-07-30T07:11:20;8.32;;;3.60;;
12474;SDS011;6302;42.624;23.334;2023-07-30T07:13:47;4.47;;;3.25;;
12474;SDS011;6302;42.624;23.334;2023-07-30T07:16:14;6.95;;;3.40;;
12474;SDS011;6302;42.624;23.334;2023-07-30T07:18:43;15.73;;;3.67;;
12474;SDS011;6302;42.624;23.334;2023-07-30T07:21:12;8.02;;;3.53;;
12474;SDS011;6302;42.624;23.334;2023-07-30T07:23:39;7.32;;;3.85;;
12474;SDS011;6302;42.624;23.334;2023-07-30T07:26:05;6.10;;;3.78;;
12474;SDS011;6302;42.624;23.334;2023-07-30T07:28:32;5.95;;;3.75;;
12474;SDS011;6302;42.624;23.334;2023-07-30T07:30:59;6.68;;;2.90;;
12474;SDS011;6302;42.624;23.334;2023-07-30T07:33:26;7.97;;;3.47;;
12474;SDS011;6302;42.624;23.334;2023-07-30T07:36:02;3.45;;;3.15;;
12474;SDS011;6302;42.624;23.334;2023-07-30T07:38:31;3.65;;;3.08;;
12474;SDS011;6302;42.624;23.334;2023-07-30T07:40:59;4.28;;;3.15;;
12474;SDS011;6302;42.624;23.334;2023-07-30T07:43:27;3.25;;;3.00;;
12474;SDS011;6302;42.624;23.334;2023-07-30T07:45:54;3.42;;;3.13;;
12474;SDS011;6302;42.624;23.334;2023-07-30T07:48:21;3.95;;;3.38;;
12474;SDS011;6302;42.624;23.334;2023-07-30T07:50:48;3.83;;;3.53;;
12474;SDS011;6302;42.624;23.334;2023-07-30T07:53:15;4.63;;;3.03;;
12474;SDS011;6302;42.624;23.334;2023-07-30T07:55:44;5.20;;;3.40;;
12474;SDS011;6302;42.624;23.334;2023-07-30T07:58:12;7.18;;;3.22;;
12474;SDS011;6302;42.624;23.334;2023-07-30T08:00:39;3.42;;;3.08;;
12474;SDS011;6302;42.624;23.334;2023-07-30T08:03:06;6.72;;;3.42;;
12474;SDS011;6302;42.624;23.334;2023-07-30T08:05:33;5.13;;;3.22;;
12474;SDS011;6302;42.624;23.334;2023-07-30T08:08:00;4.35;;;3.22;;
12474;SDS011;6302;42.624;23.334;2023-07-30T08:10:27;5.10;;;3.00;;
12474;SDS011;6302;42.624;23.334;2023-07-30T08:12:55;7.00;;;2.95;;
12474;SDS011;6302;42.624;23.334;2023-07-30T08:15:22;4.38;;;3.13;;
12474;SDS011;6302;42.624;23.334;2023-07-30T08:17:49;4.20;;;2.97;;
12474;SDS011;6302;42.624;23.334;2023-07-30T08:20:18;5.03;;;3.50;;
12474;SDS011;6302;42.624;23.334;2023-07-30T08:22:45;8.88;;;3.30;;
12474;SDS011;6302;42.624;23.334;2023-07-30T08:25:12;7.03;;;3.33;;
12474;SDS011;6302;42.624;23.334;2023-07-30T08:27:39;3.33;;;3.03;;
12474;SDS011;6302;42.624;23.334;2023-07-30T08:30:08;4.53;;;2.88;;
12474;SDS011;6302;42.624;23.334;2023-07-30T08:32:35;5.75;;;3.50;;
12474;SDS011;6302;42.624;23.334;2023-07-30T08:35:02;4.30;;;2.88;;
12474;SDS011;6302;42.624;23.334;2023-07-30T08:37:30;5.85;;;3.38;;
12474;SDS011;6302;42.624;23.334;2023-07-30T08:39:57;6.90;;;3.28;;
12474;SDS011;6302;42.624;23.334;2023-07-30T08:42:23;5.85;;;3.28;;
12474;SDS011;6302;42.624;23.334;2023-07-30T08:44:50;6.70;;;3.30;;
12474;SDS011;6302;42.624;23.334;2023-07-30T08:47:19;4.68;;;3.30;;
12474;SDS011;6302;42.624;23.334;2023-07-30T08:49:45;6.05;;;3.30;;
12474;SDS011;6302;42.624;23.334;2023-07-30T08:52:15;3.78;;;3.47;;
12474;SDS011;6302;42.624;23.334;2023-07-30T08:54:43;3.20;;;2.90;;
12474;SDS011;6302;42.624;23.334;2023-07-30T08:57:12;3.35;;;3.05;;
12474;SDS011;6302;42.624;23.334;2023-07-30T08:59:42;3.53;;;2.83;;
12474;SDS011;6302;42.624;23.334;2023-07-30T09:02:17;3.17;;;2.95;;
12474;SDS011;6302;42.624;23.334;2023-07-30T09:04:50;3.13;;;2.83;;
12474;SDS011;6302;42.624;23.334;2023-07-30T09:07:22;3.42;;;2.97;;
12474;SDS011;6302;42.624;23.334;2023-07-30T09:09:50;4.22;;;3.47;;
12474;SDS011;6302;42.624;23.334;2023-07-30T09:12:17;3.90;;;3.35;;
12474;SDS011;6302;42.624;23.334;2023-07-30T09:14:46;3.78;;;2.72;;
12474;SDS011;6302;42.624;23.334;2023-07-30T09:17:17;4.60;;;3.35;;
12474;SDS011;6302;42.624;23.334;2023-07-30T09:19:46;4.30;;;3.70;;
12474;SDS011;6302;42.624;23.334;2023-07-30T09:22:19;3.67;;;3.38;;
12474;SDS011;6302;42.624;23.334;2023-07-30T09:24:46;4.72;;;3.60;;
12474;SDS011;6302;42.624;23.334;2023-07-30T09:27:13;5.32;;;3.60;;
12474;SDS011;6302;42.624;23.334;2023-07-30T09:29:45;5.75;;;3.20;;
12474;SDS011;6302;42.624;23.334;2023-07-30T09:32:18;3.90;;;3.33;;
12474;SDS011;6302;42.624;23.334;2023-07-30T09:34:49;4.72;;;3.80;;
12474;SDS011;6302;42.624;23.334;2023-07-30T09:37:16;3.50;;;3.20;;
12474;SDS011;6302;42.624;23.334;2023-07-30T09:39:43;3.80;;;3.50;;
12474;SDS011;6302;42.624;23.334;2023-07-30T09:42:10;3.58;;;3.08;;
12474;SDS011;6302;42.624;23.334;2023-07-30T09:44:37;3.38;;;3.08;;
12474;SDS011;6302;42.624;23.334;2023-07-30T09:47:08;3.60;;;3.17;;
12474;SDS011;6302;42.624;23.334;2023-07-30T09:49:36;3.58;;;3.28;;
12474;SDS011;6302;42.624;23.334;2023-07-30T09:52:04;3.72;;;3.42;;
12474;SDS011;6302;42.624;23.334;2023-07-30T09:54:32;3.75;;;3.35;;
12474;SDS011;6302;42.624;23.334;2023-07-30T09:56:59;4.45;;;3.05;;
12474;SDS011;6302;42.624;23.334;2023-07-30T09:59:26;3.97;;;3.38;;
12474;SDS011;6302;42.624;23.334;2023-07-30T10:01:53;3.97;;;3.60;;
12474;SDS011;6302;42.624;23.334;2023-07-30T10:04:21;4.72;;;3.50;;
12474;SDS011;6302;42.624;23.334;2023-07-30T10:06:49;4.07;;;3.60;;
12474;SDS011;6302;42.624;23.334;2023-07-30T10:09:20;4.15;;;3.60;;
12474;SDS011;6302;42.624;23.334;2023-07-30T10:11:49;3.85;;;3.10;;
12474;SDS011;6302;42.624;23.334;2023-07-30T10:14:18;3.65;;;3.30;;
12474;SDS011;6302;42.624;23.334;2023-07-30T10:16:52;4.03;;;3.08;;
12474;SDS011;6302;42.624;23.334;2023-07-30T10:19:22;4.55;;;3.53;;
12474;SDS011;6302;42.624;23.334;2023-07-30T10:21:51;3.30;;;2.92;;
12474;SDS011;6302;42.624;23.334;2023-07-30T10:24:17;4.10;;;3.70;;
12474;SDS011;6302;42.624;23.334;2023-07-30T10:26:46;4.05;;;3.20;;
12474;SDS011;6302;42.624;23.334;2023-07-30T10:29:13;6.65;;;5.72;;
12474;SDS011;6302;42.624;23.334;2023-07-30T10:31:41;3.53;;;3.22;;
12474;SDS011;6302;42.624;23.334;2023-07-30T10:34:09;4.68;;;3.53;;
12474;SDS011;6302;42.624;23.334;2023-07-30T10:36:40;3.88;;;3.38;;
12474;SDS011;6302;42.624;23.334;2023-07-30T10:39:13;4.82;;;3.30;;
12474;SDS011;6302;42.624;23.334;2023-07-30T10:41:48;3.85;;;3.55;;
12474;SDS011;6302;42.624;23.334;2023-07-30T10:44:17;4.75;;;3.70;;
12474;SDS011;6302;42.624;23.334;2023-07-30T10:46:50;3.88;;;3.58;;
12474;SDS011;6302;42.624;23.334;2023-07-30T10:49:18;5.20;;;3.65;;
12474;SDS011;6302;42.624;23.334;2023-07-30T10:51:45;3.72;;;3.42;;
12474;SDS011;6302;42.624;23.334;2023-07-30T10:54:12;4.05;;;3.58;;
12474;SDS011;6302;42.624;23.334;2023-07-30T10:56:40;4.43;;;3.75;;
12474;SDS011;6302;42.624;23.334;2023-07-30T10:59:09;3.70;;;3.40;;
12474;SDS011;6302;42.624;23.334;2023-07-30T11:01:37;4.00;;;3.50;;
12474;SDS011;6302;42.624;23.334;2023-07-30T11:04:08;5.53;;;3.60;;
12474;SDS011;6302;42.624;23.334;2023-07-30T11:06:36;3.67;;;3.33;;
12474;SDS011;6302;42.624;23.334;2023-07-30T11:09:03;3.72;;;3.42;;
12474;SDS011;6302;42.624;23.334;2023-07-30T11:11:30;3.75;;;3.45;;
12474;SDS011;6302;42.624;23.334;2023-07-30T11:13:57;5.10;;;3.60;;
12474;SDS011;6302;42.624;23.334;2023-07-30T11:16:26;4.15;;;3.80;;
12474;SDS011;6302;42.624;23.334;2023-07-30T11:18:53;4.60;;;3.53;;
12474;SDS011;6302;42.624;23.334;2023-07-30T11:21:20;3.70;;;3.40;;
12474;SDS011;6302;42.624;23.334;2023-07-30T11:23:46;4.55;;;3.70;;
12474;SDS011;6302;42.624;23.334;2023-07-30T11:26:14;4.63;;;3.60;;
12474;SDS011;6302;42.624;23.334;2023-07-30T11:28:42;3.88;;;3.58;;
12474;SDS011;6302;42.624;23.334;2023-07-30T11:31:10;4.35;;;3.88;;
12474;SDS011;6302;42.624;23.334;2023-07-30T11:33:40;4.93;;;3.92;;
12474;SDS011;6302;42.624;23.334;2023-07-30T11:36:09;5.40;;;3.85;;
12474;SDS011;6302;42.624;23.334;2023-07-30T11:38:37;6.40;;;3.75;;
12474;SDS011;6302;42.624;23.334;2023-07-30T11:41:05;3.50;;;3.20;;
12474;SDS011;6302;42.624;23.334;2023-07-30T11:43:35;3.80;;;3.50;;
12474;SDS011;6302;42.624;23.334;2023-07-30T11:46:10;4.57;;;3.70;;
12474;SDS011;6302;42.624;23.334;2023-07-30T11:48:40;3.90;;;3.60;;
12474;SDS011;6302;42.624;23.334;2023-07-30T11:51:17;3.60;;;3.30;;
12474;SDS011;6302;42.624;23.334;2023-07-30T11:53:45;5.43;;;3.55;;
12474;SDS011;6302;42.624;23.334;2023-07-30T11:56:15;4.22;;;3.58;;
12474;SDS011;6302;42.624;23.334;2023-07-30T11:58:43;3.70;;;3.40;;
12474;SDS011;6302;42.624;23.334;2023-07-30T12:01:10;4.43;;;3.80;;
12474;SDS011;6302;42.624;23.334;2023-07-30T12:03:37;4.45;;;4.05;;
12474;SDS011;6302;42.624;23.334;2023-07-30T12:06:06;3.90;;;3.60;;
12474;SDS011;6302;42.624;23.334;2023-07-30T12:08:34;5.20;;;3.95;;
12474;SDS011;6302;42.624;23.334;2023-07-30T12:11:02;3.65;;;3.35;;
12474;SDS011;6302;42.624;23.334;2023-07-30T12:13:29;4.15;;;3.72;;
12474;SDS011;6302;42.624;23.334;2023-07-30T12:15:56;3.97;;;3.55;;
12474;SDS011;6302;42.624;23.334;2023-07-30T12:18:23;6.55;;;3.80;;
12474;SDS011;6302;42.624;23.334;2023-07-30T12:20:51;5.43;;;4.00;;
12474;SDS011;6302;42.624;23.334;2023-07-30T12:23:20;3.75;;;3.40;;
12474;SDS011;6302;42.624;23.334;2023-07-30T12:25:47;4.13;;;3.72;;
12474;SDS011;6302;42.624;23.334;2023-07-30T12:28:13;5.18;;;3.47;;
12474;SDS011;6302;42.624;23.334;2023-07-30T12:30:41;3.92;;;3.63;;
12474;SDS011;6302;42.624;23.334;2023-07-30T12:33:08;4.85;;;3.95;;
12474;SDS011;6302;42.624;23.334;2023-07-30T12:35:34;5.13;;;3.92;;
12474;SDS011;6302;42.624;23.334;2023-07-30T12:38:01;4.20;;;3.65;;
12474;SDS011;6302;42.624;23.334;2023-07-30T12:40:29;4.25;;;3.85;;
12474;SDS011;6302;42.624;23.334;2023-07-30T12:42:59;4.13;;;3.38;;
12474;SDS011;6302;42.624;23.334;2023-07-30T12:45:27;4.25;;;3.72;;
12474;SDS011;6302;42.624;23.334;2023-07-30T12:50:56;4.30;;;3.97;;
12474;SDS011;6302;42.624;23.334;2023-07-30T12:53:23;4.30;;;3.90;;
12474;SDS011;6302;42.624;23.334;2023-07-30T12:55:52;4.40;;;4.00;;
12474;SDS011;6302;42.624;23.334;2023-07-30T12:58:18;4.20;;;3.80;;
12474;SDS011;6302;42.624;23.334;2023-07-30T13:00:45;5.40;;;4.18;;
12474;SDS011;6302;42.624;23.334;2023-07-30T13:03:12;4.43;;;4.03;;
12474;SDS011;6302;42.624;23.334;2023-07-30T13:05:39;4.25;;;3.85;;
12474;SDS011;6302;42.624;23.334;2023-07-30T13:08:05;4.85;;;3.83;;
12474;SDS011;6302;42.624;23.334;2023-07-30T13:10:32;4.72;;;3.58;;
12474;SDS011;6302;42.624;23.334;2023-07-30T13:13:02;3.92;;;3.63;;
12474;SDS011;6302;42.624;23.334;2023-07-30T13:15:29;4.88;;;4.20;;
12474;SDS011;6302;42.624;23.334;2023-07-30T13:17:57;5.00;;;4.07;;
12474;SDS011;6302;42.624;23.334;2023-07-30T13:20:24;4.75;;;4.30;;
12474;SDS011;6302;42.624;23.334;2023-07-30T13:22:51;3.97;;;3.60;;
12474;SDS011;6302;42.624;23.334;2023-07-30T13:25:18;5.60;;;4.60;;
12474;SDS011;6302;42.624;23.334;2023-07-30T13:27:46;5.47;;;3.90;;
12474;SDS011;6302;42.624;23.334;2023-07-30T13:30:14;4.40;;;4.00;;
12474;SDS011;6302;42.624;23.334;2023-07-30T13:32:41;4.35;;;3.78;;
12474;SDS011;6302;42.624;23.334;2023-07-30T13:35:08;4.47;;;4.07;;
12474;SDS011;6302;42.624;23.334;2023-07-30T13:37:35;4.82;;;4.18;;
12474;SDS011;6302;42.624;23.334;2023-07-30T13:40:01;4.20;;;3.80;;
12474;SDS011;6302;42.624;23.334;2023-07-30T13:42:28;4.82;;;3.92;;
12474;SDS011;6302;42.624;23.334;2023-07-30T13:44:55;4.47;;;4.07;;
12474;SDS011;6302;42.624;23.334;2023-07-30T13:47:23;7.45;;;3.90;;
12474;SDS011;6302;42.624;23.334;2023-07-30T13:49:50;3.90;;;3.60;;
12474;SDS011;6302;42.624;23.334;2023-07-30T13:52:19;4.93;;;4.30;;
12474;SDS011;6302;42.624;23.334;2023-07-30T13:54:46;4.78;;;4.10;;
12474;SDS011;6302;42.624;23.334;2023-07-30T13:57:13;4.60;;;4.18;;
12474;SDS011;6302;42.624;23.334;2023-07-30T13:59:49;4.68;;;4.18;;
12474;SDS011;6302;42.624;23.334;2023-07-30T14:02:16;7.10;;;4.32;;
12474;SDS011;6302;42.624;23.334;2023-07-30T14:04:44;4.10;;;3.75;;
12474;SDS011;6302;42.624;23.334;2023-07-30T14:07:13;4.45;;;4.05;;
12474;SDS011;6302;42.624;23.334;2023-07-30T14:09:41;5.47;;;3.83;;
12474;SDS011;6302;42.624;23.334;2023-07-30T14:12:09;4.93;;;4.43;;
12474;SDS011;6302;42.624;23.334;2023-07-30T14:14:36;6.90;;;4.10;;
12474;SDS011;6302;42.624;23.334;2023-07-30T14:17:03;4.82;;;4.43;;
12474;SDS011;6302;42.624;23.334;2023-07-30T14:19:32;4.68;;;4.28;;
12474;SDS011;6302;42.624;23.334;2023-07-30T14:22:00;5.85;;;4.35;;
12474;SDS011;6302;42.624;23.334;2023-07-30T14:24:29;7.20;;;4.90;;
12474;SDS011;6302;42.624;23.334;2023-07-30T14:27:10;8.32;;;4.10;;
12474;SDS011;6302;42.624;23.334;2023-07-30T14:29:40;4.40;;;3.90;;
12474;SDS011;6302;42.624;23.334;2023-07-30T14:32:07;5.35;;;4.68;;
12474;SDS011;6302;42.624;23.334;2023-07-30T14:34:37;5.70;;;4.63;;
12474;SDS011;6302;42.624;23.334;2023-07-30T14:37:13;4.78;;;4.38;;
12474;SDS011;6302;42.624;23.334;2023-07-30T14:39:41;6.40;;;4.80;;
12474;SDS011;6302;42.624;23.334;2023-07-30T14:42:11;4.68;;;4.25;;
12474;SDS011;6302;42.624;23.334;2023-07-30T14:44:38;4.80;;;4.30;;
12474;SDS011;6302;42.624;23.334;2023-07-30T14:47:08;4.28;;;3.92;;
12474;SDS011;6302;42.624;23.334;2023-07-30T14:49:37;4.97;;;4.57;;
12474;SDS011;6302;42.624;23.334;2023-07-30T14:52:04;6.75;;;4.35;;
12474;SDS011;6302;42.624;23.334;2023-07-30T14:54:33;4.25;;;3.95;;